createdAt,value
2018-07-17T00:00:53.167Z,10.47
2018-07-17T00:03:22.421Z,10.27
2018-07-17T00:05:51.627Z,9.77
2018-07-17T00:08:20.802Z,10.03
2018-07-17T00:10:50.017Z,9.90
2018-07-17T00:13:19.172Z,9.73
2018-07-17T00:15:48.251Z,10.53
2018-07-17T00:18:17.372Z,10.17
2018-07-17T00:20:46.816Z,8.97
2018-07-17T00:23:15.915Z,9.70
2018-07-17T00:25:45.162Z,10.43
2018-07-17T00:28:14.301Z,10.57
2018-07-17T00:30:43.459Z,10.63
2018-07-17T00:33:12.653Z,10.23
2018-07-17T00:35:41.839Z,10.90
2018-07-17T00:38:11.327Z,10.07
2018-07-17T00:40:40.459Z,11.63
2018-07-17T00:43:09.591Z,10.67
2018-07-17T00:45:38.824Z,9.83
2018-07-17T00:48:08.104Z,11.83
2018-07-17T00:50:37.345Z,10.20
2018-07-17T00:53:06.567Z,11.40
2018-07-17T00:55:35.676Z,12.97
2018-07-17T00:58:04.811Z,11.63
2018-07-17T01:00:39.443Z,12.83
2018-07-17T01:03:13.967Z,12.20
2018-07-17T01:05:48.585Z,13.90
2018-07-17T01:08:23.188Z,12.13
2018-07-17T01:10:57.579Z,13.77
2018-07-17T01:13:37.247Z,13.43
2018-07-17T01:16:06.473Z,13.03
2018-07-17T01:18:35.569Z,12.83
2018-07-17T01:21:04.713Z,13.37
2018-07-17T01:23:33.853Z,13.50
2018-07-17T01:26:03.069Z,12.10
2018-07-17T01:28:32.163Z,13.07
2018-07-17T01:31:01.292Z,13.90
2018-07-17T01:33:30.475Z,11.20
2018-07-17T01:35:59.626Z,11.90
2018-07-17T01:38:28.858Z,13.37
2018-07-17T01:40:57.955Z,13.23
2018-07-17T01:43:27.073Z,14.40
2018-07-17T01:45:56.276Z,13.03
2018-07-17T01:48:25.409Z,13.03
2018-07-17T01:50:54.578Z,14.57
2018-07-17T01:53:23.703Z,13.27
2018-07-17T01:55:52.808Z,13.73
2018-07-17T01:58:21.926Z,14.17
2018-07-17T02:00:51.018Z,14.03
2018-07-17T02:03:20.156Z,13.10
2018-07-17T02:05:50.012Z,13.97
2018-07-17T02:08:19.140Z,15.37
2018-07-17T02:10:48.268Z,16.07
2018-07-17T02:13:17.399Z,16.63
2018-07-17T02:15:46.527Z,16.83
2018-07-17T02:18:15.711Z,15.43
2018-07-17T02:20:44.831Z,13.97
2018-07-17T02:23:13.961Z,14.40
2018-07-17T02:25:43.194Z,14.93
2018-07-17T02:28:11.975Z,16.57
2018-07-17T02:30:41.072Z,16.03
2018-07-17T02:33:10.206Z,15.60
2018-07-17T02:35:39.339Z,16.90
2018-07-17T02:38:08.441Z,17.23
2018-07-17T02:40:37.543Z,17.27
2018-07-17T02:43:06.795Z,17.83
2018-07-17T02:45:35.960Z,16.03
2018-07-17T02:48:05.257Z,17.00
2018-07-17T02:50:34.376Z,14.10
2018-07-17T02:53:06.460Z,14.43
2018-07-17T02:55:35.614Z,16.07
2018-07-17T02:58:04.764Z,15.53
2018-07-17T03:00:33.900Z,14.03
2018-07-17T03:03:03.967Z,13.83
2018-07-17T03:05:33.126Z,12.57
2018-07-17T03:08:02.324Z,15.00
2018-07-17T03:10:31.524Z,17.37
2018-07-17T03:13:00.332Z,17.57
2018-07-17T03:15:29.401Z,17.63
2018-07-17T03:17:58.526Z,18.73
2018-07-17T03:20:27.685Z,16.10
2018-07-17T03:22:57.462Z,16.03
2018-07-17T03:25:26.621Z,12.93
2018-07-17T03:27:55.757Z,13.17
2018-07-17T03:30:24.958Z,12.50
2018-07-17T03:32:54.164Z,13.97
2018-07-17T03:35:23.389Z,14.60
2018-07-17T03:37:52.545Z,15.10
2018-07-17T03:40:21.643Z,12.80
2018-07-17T03:42:50.762Z,12.57
2018-07-17T03:45:19.936Z,11.87
2018-07-17T03:47:49.140Z,12.83
2018-07-17T03:50:18.288Z,12.57
2018-07-17T03:52:47.984Z,14.80
2018-07-17T03:55:17.179Z,14.90
2018-07-17T03:57:46.104Z,16.10
2018-07-17T04:00:15.191Z,14.73
2018-07-17T04:02:44.466Z,15.27
2018-07-17T04:05:13.516Z,14.93
2018-07-17T04:07:42.597Z,14.13
2018-07-17T04:10:11.935Z,13.10
2018-07-17T04:12:41.108Z,14.00
2018-07-17T04:15:10.268Z,13.43
2018-07-17T04:17:39.512Z,14.27
2018-07-17T04:20:08.710Z,17.20
2018-07-17T04:22:37.814Z,24.60
2018-07-17T04:25:06.993Z,22.87
2018-07-17T04:27:36.107Z,23.10
2018-07-17T04:30:05.324Z,24.13
2018-07-17T04:32:34.505Z,20.70
2018-07-17T04:35:03.681Z,24.60
2018-07-17T04:37:32.808Z,28.73
2018-07-17T04:40:01.970Z,25.10
2018-07-17T04:42:31.171Z,25.70
2018-07-17T04:45:00.327Z,25.47
2018-07-17T04:47:29.513Z,26.43
2018-07-17T04:49:58.747Z,26.33
2018-07-17T04:52:27.850Z,26.13
2018-07-17T04:54:57.133Z,24.43
2018-07-17T04:57:26.823Z,27.57
2018-07-17T04:59:55.997Z,24.10
2018-07-17T05:02:25.288Z,24.47
2018-07-17T05:04:54.424Z,24.30
2018-07-17T05:07:23.560Z,23.93
2018-07-17T05:09:52.710Z,21.90
2018-07-17T05:12:21.964Z,22.93
2018-07-17T05:14:51.049Z,21.90
2018-07-17T05:17:20.179Z,24.23
2018-07-17T05:19:49.324Z,23.43
2018-07-17T05:22:18.451Z,20.20
2018-07-17T05:24:47.554Z,19.57
2018-07-17T05:27:17.141Z,19.70
2018-07-17T05:29:46.225Z,22.23
2018-07-17T05:32:15.361Z,20.47
2018-07-17T05:34:44.719Z,20.33
2018-07-17T05:37:13.904Z,20.77
2018-07-17T05:39:43.248Z,20.00
2018-07-17T05:42:12.434Z,20.10
2018-07-17T05:44:41.545Z,18.80
2018-07-17T05:47:10.875Z,19.67
2018-07-17T05:49:40.040Z,21.30
2018-07-17T05:52:09.238Z,22.43
2018-07-17T05:54:38.480Z,21.70
2018-07-17T05:57:07.696Z,21.90
2018-07-17T05:59:36.932Z,21.20
2018-07-17T06:02:06.699Z,25.77
2018-07-17T06:04:35.822Z,19.00
2018-07-17T06:07:05.039Z,17.13
2018-07-17T06:09:34.138Z,18.33
2018-07-17T06:12:03.497Z,18.77
2018-07-17T06:14:32.636Z,19.13
2018-07-17T06:17:01.802Z,19.17
2018-07-17T06:19:31.122Z,18.30
2018-07-17T06:22:00.035Z,17.50
2018-07-17T06:24:30.145Z,18.20
2018-07-17T06:26:59.282Z,19.00
2018-07-17T06:29:28.400Z,18.93
2018-07-17T06:31:57.526Z,18.40
2018-07-17T06:34:26.699Z,17.33
2018-07-17T06:36:55.855Z,16.40
2018-07-17T06:39:25.045Z,16.27
2018-07-17T06:41:54.160Z,16.63
2018-07-17T06:44:23.344Z,16.07
2018-07-17T06:46:52.791Z,15.93
2018-07-17T06:49:21.922Z,16.40
2018-07-17T06:51:51.055Z,17.40
2018-07-17T06:54:20.201Z,17.00
2018-07-17T06:56:49.481Z,18.53
2018-07-17T06:59:18.675Z,15.83
2018-07-17T07:01:47.892Z,17.07
2018-07-17T07:04:17.099Z,14.90
2018-07-17T07:06:46.304Z,16.37
2018-07-17T07:09:15.455Z,15.27
2018-07-17T07:11:44.663Z,15.33
2018-07-17T07:14:13.899Z,14.53
2018-07-17T07:16:43.157Z,13.77
2018-07-17T07:19:12.483Z,18.83
2018-07-17T07:21:41.664Z,14.00
2018-07-17T07:24:10.836Z,13.07
2018-07-17T07:26:40.090Z,16.40
2018-07-17T07:29:10.634Z,11.63
2018-07-17T07:31:39.816Z,12.87
2018-07-17T07:34:09.752Z,12.57
2018-07-17T07:36:38.584Z,14.00
2018-07-17T07:39:09.315Z,12.37
2018-07-17T07:41:38.400Z,13.77
2018-07-17T07:44:07.694Z,12.40
2018-07-17T07:46:36.856Z,11.90
2018-07-17T07:49:06.053Z,11.70
2018-07-17T07:51:35.179Z,18.37
2018-07-17T07:54:04.433Z,11.20
2018-07-17T07:56:34.300Z,12.77
2018-07-17T07:59:03.494Z,11.07
2018-07-17T08:01:33.281Z,9.27
2018-07-17T08:04:02.251Z,14.23
2018-07-17T08:06:31.277Z,9.37
2018-07-17T08:09:00.922Z,11.27
2018-07-17T08:11:30.142Z,10.00
2018-07-17T08:13:59.240Z,9.30
2018-07-17T08:16:28.456Z,10.57
2018-07-17T08:18:57.287Z,12.57
2018-07-17T08:21:33.224Z,11.10
2018-07-17T08:24:02.397Z,20.93
2018-07-17T08:26:31.631Z,9.13
2018-07-17T08:29:00.988Z,13.80
2018-07-17T08:31:30.165Z,12.77
2018-07-17T08:33:59.396Z,11.23
2018-07-17T08:36:28.696Z,10.23
2018-07-17T08:38:57.862Z,13.63
2018-07-17T08:41:26.740Z,9.50
2018-07-17T08:43:55.815Z,8.90
2018-07-17T08:46:24.993Z,8.90
2018-07-17T08:48:54.167Z,7.87
2018-07-17T08:51:23.422Z,7.80
2018-07-17T08:53:52.664Z,7.23
2018-07-17T08:56:21.849Z,14.03
2018-07-17T08:58:51.772Z,8.10
2018-07-17T09:01:20.989Z,7.33
2018-07-17T09:03:50.119Z,6.67
2018-07-17T09:06:19.293Z,6.63
2018-07-17T09:08:48.454Z,7.67
2018-07-17T09:11:17.707Z,5.73
2018-07-17T09:13:47.862Z,6.92
2018-07-17T09:16:17.550Z,5.75
2018-07-17T09:18:46.758Z,5.37
2018-07-17T09:21:16.005Z,5.17
2018-07-17T09:23:45.212Z,6.80
2018-07-17T09:26:15.105Z,6.60
2018-07-17T09:28:44.884Z,9.75
2018-07-17T09:31:14.156Z,8.70
2018-07-17T09:33:43.416Z,10.08
2018-07-17T09:36:12.865Z,6.40
2018-07-17T09:38:41.983Z,5.30
2018-07-17T09:41:11.205Z,5.53
2018-07-17T09:43:40.360Z,5.97
2018-07-17T09:46:09.216Z,9.58
2018-07-17T09:48:38.367Z,6.53
2018-07-17T09:51:08.124Z,5.00
2018-07-17T09:53:37.350Z,6.60
2018-07-17T09:56:06.801Z,6.17
2018-07-17T09:58:35.862Z,6.35
2018-07-17T10:01:10.422Z,6.28
2018-07-17T10:03:39.661Z,8.25
2018-07-17T10:06:08.838Z,5.58
2018-07-17T10:08:37.948Z,6.17
2018-07-17T10:11:07.111Z,7.05
2018-07-17T10:13:36.236Z,6.13
2018-07-17T10:16:05.472Z,5.90
2018-07-17T10:18:34.645Z,6.30
2018-07-17T10:21:03.793Z,6.50
2018-07-17T10:23:33.743Z,32.67
2018-07-17T10:26:02.880Z,7.03
2018-07-17T10:28:32.058Z,6.87
2018-07-17T10:31:01.185Z,9.90
2018-07-17T10:33:30.348Z,7.40
2018-07-17T10:35:59.616Z,6.33
2018-07-17T10:38:28.824Z,7.53
2018-07-17T10:40:58.056Z,7.55
2018-07-17T10:43:27.263Z,5.65
2018-07-17T10:45:56.443Z,7.58
2018-07-17T10:48:25.897Z,5.78
2018-07-17T10:50:55.096Z,5.40
2018-07-17T10:53:24.271Z,8.35
2018-07-17T10:55:53.404Z,12.15
2018-07-17T10:58:22.502Z,9.45
2018-07-17T11:00:51.693Z,7.67
2018-07-17T11:03:28.383Z,6.55
2018-07-17T11:05:57.578Z,7.75
2018-07-17T11:08:26.777Z,7.22
2018-07-17T11:10:55.910Z,8.20
2018-07-17T11:13:25.132Z,14.03
2018-07-17T11:15:55.088Z,6.55
2018-07-17T11:18:24.192Z,6.33
2018-07-17T11:20:53.408Z,5.55
2018-07-17T11:23:22.563Z,5.05
2018-07-17T11:25:51.810Z,6.15
2018-07-17T11:28:20.948Z,5.53
2018-07-17T11:30:50.136Z,6.92
2018-07-17T11:33:19.316Z,5.10
2018-07-17T11:35:48.439Z,6.10
2018-07-17T11:38:17.639Z,7.10
2018-07-17T11:40:46.835Z,5.58
2018-07-17T11:43:16.112Z,5.83
2018-07-17T11:45:45.324Z,6.37
2018-07-17T11:48:14.744Z,5.00
2018-07-17T11:50:43.556Z,5.28
2018-07-17T11:53:12.660Z,5.30
2018-07-17T11:55:41.949Z,5.22
2018-07-17T11:58:11.091Z,5.55
2018-07-17T12:00:40.284Z,5.12
2018-07-17T12:03:09.563Z,5.70
2018-07-17T12:05:38.769Z,6.40
2018-07-17T12:08:07.910Z,7.67
2018-07-17T12:10:37.805Z,4.78
2018-07-17T12:13:07.011Z,5.80
2018-07-17T12:15:36.184Z,5.33
2018-07-17T12:18:05.552Z,5.83
2018-07-17T12:20:34.874Z,6.85
2018-07-17T12:23:03.928Z,7.62
2018-07-17T12:25:33.112Z,6.83
2018-07-17T12:28:02.599Z,7.58
2018-07-17T12:30:31.793Z,7.78
2018-07-17T12:33:00.988Z,7.75
2018-07-17T12:35:30.203Z,11.20
2018-07-17T12:37:59.385Z,7.85
2018-07-17T12:40:28.593Z,9.60
2018-07-17T12:42:57.779Z,5.45
2018-07-17T12:45:26.955Z,4.55
2018-07-17T12:47:56.088Z,4.97
2018-07-17T12:50:25.746Z,5.95
2018-07-17T12:52:54.965Z,4.20
2018-07-17T12:55:24.198Z,4.25
2018-07-17T12:57:53.424Z,3.92
2018-07-17T13:00:22.564Z,4.17
2018-07-17T13:02:51.777Z,3.90
2018-07-17T13:05:20.946Z,5.90
2018-07-17T13:07:50.173Z,5.35
2018-07-17T13:10:19.425Z,7.95
2018-07-17T13:12:48.579Z,4.05
2018-07-17T13:15:18.017Z,6.42
2018-07-17T13:17:47.214Z,4.95
2018-07-17T13:20:16.387Z,3.20
2018-07-17T13:22:45.652Z,7.85
2018-07-17T13:25:14.813Z,4.17
2018-07-17T13:27:43.980Z,4.28
2018-07-17T13:30:13.177Z,7.00
2018-07-17T13:32:42.938Z,6.00
2018-07-17T13:35:12.093Z,5.37
2018-07-17T13:37:41.265Z,5.95
2018-07-17T13:40:10.775Z,9.05
2018-07-17T13:42:39.964Z,8.20
2018-07-17T13:45:09.123Z,7.28
2018-07-17T13:47:38.432Z,9.28
2018-07-17T13:50:07.662Z,11.57
2018-07-17T13:52:36.880Z,8.20
2018-07-17T13:55:06.797Z,9.03
2018-07-17T13:57:35.944Z,16.05
2018-07-17T14:00:06.513Z,21.45
2018-07-17T14:02:35.561Z,13.37
2018-07-17T14:05:05.105Z,11.40
2018-07-17T14:07:34.190Z,8.30
2018-07-17T14:10:03.490Z,11.53
2018-07-17T14:12:32.688Z,9.07
2018-07-17T14:15:01.898Z,9.70
2018-07-17T14:17:31.130Z,6.63
2018-07-17T14:20:00.184Z,8.57
2018-07-17T14:22:29.440Z,6.27
2018-07-17T14:24:58.672Z,8.00
2018-07-17T14:27:27.997Z,6.00
2018-07-17T14:29:57.210Z,15.70
2018-07-17T14:32:26.429Z,9.00
2018-07-17T14:34:55.689Z,6.00
2018-07-17T14:37:24.993Z,8.55
2018-07-17T14:39:54.186Z,7.13
2018-07-17T14:42:23.364Z,10.53
2018-07-17T14:44:52.505Z,9.73
2018-07-17T14:47:21.779Z,8.03
2018-07-17T14:49:50.948Z,7.90
2018-07-17T14:52:19.809Z,9.77
2018-07-17T14:54:48.855Z,9.07
2018-07-17T14:57:18.152Z,9.53
2018-07-17T14:59:47.699Z,8.10
2018-07-17T15:02:16.906Z,15.57
2018-07-17T15:04:46.122Z,17.03
2018-07-17T15:07:15.260Z,14.77
2018-07-17T15:09:44.512Z,12.63
2018-07-17T15:12:13.678Z,14.83
2018-07-17T15:14:42.884Z,13.27
2018-07-17T15:17:12.035Z,13.63
2018-07-17T15:19:41.288Z,10.77
2018-07-17T15:22:10.472Z,15.93
2018-07-17T15:24:39.680Z,20.87
2018-07-17T15:27:08.942Z,14.07
2018-07-17T15:29:38.128Z,13.50
2018-07-17T15:32:07.416Z,11.37
2018-07-17T15:34:36.716Z,11.60
2018-07-17T15:37:05.926Z,12.53
2018-07-17T15:39:35.126Z,14.77
2018-07-17T15:42:04.338Z,13.73
2018-07-17T15:44:33.607Z,11.67
2018-07-17T15:47:02.759Z,11.83
2018-07-17T15:49:32.729Z,12.37
2018-07-17T15:52:01.954Z,14.57
2018-07-17T15:54:31.272Z,16.17
2018-07-17T15:57:00.527Z,13.27
2018-07-17T15:59:30.419Z,13.27
2018-07-17T16:01:59.666Z,16.50
2018-07-17T16:04:28.978Z,12.60
2018-07-17T16:06:58.161Z,13.97
2018-07-17T16:09:28.031Z,12.00
2018-07-17T16:11:57.265Z,11.67
2018-07-17T16:14:26.740Z,14.17
2018-07-17T16:16:56.354Z,12.77
2018-07-17T16:19:25.619Z,15.20
2018-07-17T16:21:54.802Z,15.07
2018-07-17T16:24:30.705Z,14.23
2018-07-17T16:26:59.931Z,14.00
2018-07-17T16:29:29.895Z,14.30
2018-07-17T16:31:59.702Z,17.87
2018-07-17T16:34:29.114Z,13.93
2018-07-17T16:36:58.601Z,14.30
2018-07-17T16:39:27.745Z,15.20
2018-07-17T16:41:57.487Z,15.30
2018-07-17T16:44:26.700Z,14.83
2018-07-17T16:46:57.412Z,14.93
2018-07-17T16:49:26.678Z,15.03
2018-07-17T16:51:55.827Z,16.40
2018-07-17T16:54:25.548Z,16.13
2018-07-17T16:56:55.634Z,15.83
2018-07-17T16:59:24.752Z,16.20
2018-07-17T17:01:54.039Z,16.27
2018-07-17T17:04:23.682Z,15.90
2018-07-17T17:06:52.975Z,22.53
2018-07-17T17:09:22.221Z,16.60
2018-07-17T17:11:51.418Z,16.90
2018-07-17T17:14:20.587Z,16.37
2018-07-17T17:16:49.773Z,16.70
2018-07-17T17:19:18.932Z,17.87
2018-07-17T17:21:48.759Z,17.00
2018-07-17T17:24:18.083Z,16.33
2018-07-17T17:26:47.302Z,16.53
2018-07-17T17:29:16.438Z,16.27
2018-07-17T17:31:45.733Z,15.73
2018-07-17T17:34:14.925Z,14.67
2018-07-17T17:36:44.780Z,13.97
2018-07-17T17:39:13.890Z,13.83
2018-07-17T17:41:43.016Z,14.53
2018-07-17T17:44:12.264Z,13.80
2018-07-17T17:46:41.365Z,12.90
2018-07-17T17:49:10.567Z,12.10
2018-07-17T17:51:39.777Z,11.73
2018-07-17T17:54:08.957Z,13.40
2018-07-17T17:56:38.146Z,12.33
2018-07-17T17:59:07.380Z,13.83
2018-07-17T18:01:36.631Z,11.90
2018-07-17T18:04:06.164Z,10.73
2018-07-17T18:06:35.296Z,10.30
2018-07-17T18:09:06.122Z,11.40
2018-07-17T18:11:35.530Z,10.30
2018-07-17T18:14:04.756Z,10.00
2018-07-17T18:16:34.015Z,10.23
2018-07-17T18:19:03.226Z,9.73
2018-07-17T18:21:32.425Z,9.23
2018-07-17T18:24:01.652Z,9.70
2018-07-17T18:26:30.959Z,8.67
2018-07-17T18:29:00.304Z,8.07
2018-07-17T18:31:30.387Z,8.67
2018-07-17T18:33:59.563Z,8.47
2018-07-17T18:36:28.912Z,7.70
2018-07-17T18:38:58.053Z,7.33
2018-07-17T18:41:27.304Z,6.77
2018-07-17T18:43:56.442Z,7.33
2018-07-17T18:46:25.605Z,7.00
2018-07-17T18:48:54.444Z,8.27
2018-07-17T18:51:23.626Z,7.80
2018-07-17T18:53:52.923Z,9.00
2018-07-17T18:56:21.961Z,9.40
2018-07-17T18:58:51.111Z,8.83
2018-07-17T19:01:20.314Z,8.37
2018-07-17T19:03:49.453Z,7.87
2018-07-17T19:06:18.608Z,8.17
2018-07-17T19:08:47.697Z,7.97
2018-07-17T19:11:16.983Z,8.03
2018-07-17T19:13:46.118Z,7.33
2018-07-17T19:16:15.298Z,8.00
2018-07-17T19:18:44.505Z,7.70
2018-07-17T19:21:13.728Z,8.70
2018-07-17T19:23:42.964Z,9.33
2018-07-17T19:26:12.092Z,10.17
2018-07-17T19:28:41.281Z,11.60
2018-07-17T19:31:10.460Z,8.17
2018-07-17T19:33:39.616Z,9.23
2018-07-17T19:36:08.765Z,8.40
2018-07-17T19:38:37.985Z,8.47
2018-07-17T19:41:07.134Z,10.90
2018-07-17T19:43:36.357Z,7.83
2018-07-17T19:46:05.186Z,9.40
2018-07-17T19:48:34.262Z,9.73
2018-07-17T19:51:03.467Z,9.33
2018-07-17T19:53:32.640Z,9.70
2018-07-17T19:56:01.909Z,9.63
2018-07-17T19:58:31.079Z,10.53
2018-07-17T20:01:00.218Z,10.60
2018-07-17T20:03:29.371Z,12.47
2018-07-17T20:05:58.485Z,11.60
2018-07-17T20:08:27.717Z,11.87
2018-07-17T20:10:56.843Z,11.10
2018-07-17T20:13:25.952Z,13.53
2018-07-17T20:15:55.097Z,13.00
2018-07-17T20:18:24.236Z,13.93
2018-07-17T20:20:53.337Z,11.57
2018-07-17T20:23:22.555Z,13.47
2018-07-17T20:25:51.680Z,11.80
2018-07-17T20:28:20.880Z,12.53
2018-07-17T20:30:50.148Z,13.97
2018-07-17T20:33:19.298Z,15.80
2018-07-17T20:35:48.431Z,13.30
2018-07-17T20:38:17.728Z,13.80
2018-07-17T20:40:46.906Z,14.90
2018-07-17T20:43:16.075Z,15.30
2018-07-17T20:45:45.329Z,14.67
2018-07-17T20:48:14.498Z,16.23
2018-07-17T20:50:43.631Z,14.93
2018-07-17T20:53:12.834Z,15.70
2018-07-17T20:55:42.495Z,16.93
2018-07-17T20:58:11.627Z,15.60
2018-07-17T21:00:40.780Z,17.17
2018-07-17T21:03:09.974Z,15.70
2018-07-17T21:05:39.176Z,18.03
2018-07-17T21:08:08.456Z,16.53
2018-07-17T21:10:37.616Z,16.63
2018-07-17T21:13:06.786Z,17.93
2018-07-17T21:15:35.875Z,18.87
2018-07-17T21:18:07.948Z,19.33
2018-07-17T21:20:37.120Z,19.63
2018-07-17T21:23:06.311Z,19.50
2018-07-17T21:25:35.559Z,20.37
2018-07-17T21:28:05.031Z,19.87
2018-07-17T21:30:34.186Z,20.40
2018-07-17T21:33:03.446Z,20.40
2018-07-17T21:35:32.713Z,23.47
2018-07-17T21:38:01.877Z,20.90
2018-07-17T21:40:31.166Z,21.97
2018-07-17T21:43:01.008Z,21.87
2018-07-17T21:45:30.163Z,21.13
2018-07-17T21:47:59.289Z,23.13
2018-07-17T21:50:28.451Z,23.77
2018-07-17T21:52:57.596Z,24.50
2018-07-17T21:55:26.795Z,27.13
2018-07-17T21:57:56.024Z,27.70
2018-07-17T22:00:25.810Z,25.13
2018-07-17T22:02:54.924Z,25.73
2018-07-17T22:05:24.137Z,24.37
2018-07-17T22:07:53.259Z,25.40
2018-07-17T22:10:22.439Z,25.13
2018-07-17T22:12:51.516Z,24.37
2018-07-17T22:15:20.731Z,24.90
2018-07-17T22:17:49.432Z,23.33
2018-07-17T22:20:18.480Z,23.97
2018-07-17T22:22:48.018Z,24.83
2018-07-17T22:25:17.225Z,22.20
2018-07-17T22:27:46.380Z,22.93
2018-07-17T22:30:15.540Z,23.50
2018-07-17T22:32:44.427Z,24.07
2018-07-17T22:35:13.492Z,22.40
2018-07-17T22:37:42.594Z,25.90
2018-07-17T22:40:11.743Z,22.53
2018-07-17T22:42:40.895Z,24.43
2018-07-17T22:45:10.053Z,22.00
2018-07-17T22:47:39.190Z,23.07
2018-07-17T22:50:08.432Z,20.47
2018-07-17T22:52:37.589Z,21.80
2018-07-17T22:55:06.925Z,20.17
2018-07-17T22:57:36.591Z,19.83
2018-07-17T23:00:06.837Z,19.37
2018-07-17T23:02:35.998Z,19.87
2018-07-17T23:05:05.203Z,19.97
2018-07-17T23:07:34.339Z,20.97
2018-07-17T23:10:04.284Z,20.77
2018-07-17T23:12:33.476Z,19.80
2018-07-17T23:15:02.727Z,21.00
2018-07-17T23:17:31.879Z,20.83
2018-07-17T23:20:01.098Z,20.50
2018-07-17T23:22:43.327Z,20.97
2018-07-17T23:25:12.554Z,19.77
2018-07-17T23:27:41.645Z,19.47
2018-07-17T23:30:10.771Z,18.83
2018-07-17T23:32:39.896Z,19.10
2018-07-17T23:35:09.056Z,19.33
2018-07-17T23:37:38.175Z,18.90
2018-07-17T23:40:07.296Z,18.17
2018-07-17T23:42:36.463Z,19.70
2018-07-17T23:45:06.161Z,18.27
2018-07-17T23:47:35.312Z,17.87
2018-07-17T23:50:04.564Z,19.23
2018-07-17T23:52:33.724Z,18.73
2018-07-17T23:55:03.141Z,21.37
2018-07-17T23:57:32.649Z,19.70
